sensor_id;sensor_type;location;lat;lon;timestamp;P1;durP1;ratioP1;P2;durP2;ratioP2
8958;SDS011;4514;49.476;8.484;2022-11-15T00:00:53;5.18;;;4.68;;
8958;SDS011;4514;49.476;8.484;2022-11-15T00:03:19;4.93;;;4.32;;
8958;SDS011;4514;49.476;8.484;2022-11-15T00:05:46;5.55;;;4.30;;
8958;SDS011;4514;49.476;8.484;2022-11-15T00:08:12;8.20;;;4.30;;
8958;SDS011;4514;49.476;8.484;2022-11-15T00:10:37;7.82;;;4.57;;
8958;SDS011;4514;49.476;8.484;2022-11-15T00:13:10;6.32;;;4.80;;
8958;SDS011;4514;49.476;8.484;2022-11-15T00:15:38;5.07;;;4.10;;
8958;SDS011;4514;49.476;8.484;2022-11-15T00:18:06;6.10;;;4.90;;
8958;SDS011;4514;49.476;8.484;2022-11-15T00:20:36;6.72;;;4.70;;
8958;SDS011;4514;49.476;8.484;2022-11-15T00:23:04;5.35;;;4.13;;
8958;SDS011;4514;49.476;8.484;2022-11-15T00:25:32;6.50;;;4.60;;
8958;SDS011;4514;49.476;8.484;2022-11-15T00:27:58;6.25;;;4.30;;
8958;SDS011;4514;49.476;8.484;2022-11-15T00:30:24;4.70;;;4.28;;
8958;SDS011;4514;49.476;8.484;2022-11-15T00:32:56;5.43;;;4.28;;
8958;SDS011;4514;49.476;8.484;2022-11-15T00:35:28;5.00;;;4.50;;
8958;SDS011;4514;49.476;8.484;2022-11-15T00:37:58;5.00;;;4.50;;
8958;SDS011;4514;49.476;8.484;2022-11-15T00:40:23;6.55;;;4.38;;
8958;SDS011;4514;49.476;8.484;2022-11-15T00:42:51;5.83;;;4.80;;
8958;SDS011;4514;49.476;8.484;2022-11-15T00:45:17;4.97;;;4.50;;
8958;SDS011;4514;49.476;8.484;2022-11-15T00:47:45;4.95;;;4.43;;
8958;SDS011;4514;49.476;8.484;2022-11-15T00:50:11;4.97;;;4.35;;
8958;SDS011;4514;49.476;8.484;2022-11-15T00:52:39;5.22;;;4.40;;
8958;SDS011;4514;49.476;8.484;2022-11-15T00:55:05;6.78;;;4.40;;
8958;SDS011;4514;49.476;8.484;2022-11-15T00:57:30;4.57;;;4.18;;
8958;SDS011;4514;49.476;8.484;2022-11-15T00:59:56;4.63;;;4.18;;
8958;SDS011;4514;49.476;8.484;2022-11-15T01:02:24;7.60;;;4.60;;
8958;SDS011;4514;49.476;8.484;2022-11-15T01:04:49;4.55;;;3.85;;
8958;SDS011;4514;49.476;8.484;2022-11-15T01:07:17;5.00;;;4.40;;
8958;SDS011;4514;49.476;8.484;2022-11-15T01:09:42;4.95;;;3.90;;
8958;SDS011;4514;49.476;8.484;2022-11-15T01:12:10;5.85;;;4.32;;
8958;SDS011;4514;49.476;8.484;2022-11-15T01:14:35;5.38;;;4.05;;
8958;SDS011;4514;49.476;8.484;2022-11-15T01:17:00;5.50;;;4.30;;
8958;SDS011;4514;49.476;8.484;2022-11-15T01:19:28;5.47;;;4.18;;
8958;SDS011;4514;49.476;8.484;2022-11-15T01:21:56;4.40;;;4.00;;
8958;SDS011;4514;49.476;8.484;2022-11-15T01:24:24;5.18;;;3.85;;
8958;SDS011;4514;49.476;8.484;2022-11-15T01:26:51;5.63;;;3.90;;
8958;SDS011;4514;49.476;8.484;2022-11-15T01:29:17;4.63;;;3.90;;
8958;SDS011;4514;49.476;8.484;2022-11-15T01:31:42;4.95;;;3.80;;
8958;SDS011;4514;49.476;8.484;2022-11-15T01:34:12;4.63;;;4.22;;
8958;SDS011;4514;49.476;8.484;2022-11-15T01:36:38;5.32;;;4.13;;
8958;SDS011;4514;49.476;8.484;2022-11-15T01:39:05;5.35;;;4.05;;
8958;SDS011;4514;49.476;8.484;2022-11-15T01:41:32;5.30;;;4.30;;
8958;SDS011;4514;49.476;8.484;2022-11-15T01:44:31;4.88;;;4.03;;
8958;SDS011;4514;49.476;8.484;2022-11-15T01:46:59;4.80;;;4.28;;
8958;SDS011;4514;49.476;8.484;2022-11-15T01:49:25;4.40;;;4.00;;
8958;SDS011;4514;49.476;8.484;2022-11-15T01:51:54;4.65;;;4.25;;
8958;SDS011;4514;49.476;8.484;2022-11-15T01:54:20;5.07;;;4.03;;
8958;SDS011;4514;49.476;8.484;2022-11-15T01:56:50;6.50;;;4.38;;
8958;SDS011;4514;49.476;8.484;2022-11-15T01:59:20;5.63;;;3.90;;
8958;SDS011;4514;49.476;8.484;2022-11-15T02:01:48;4.82;;;4.22;;
8958;SDS011;4514;49.476;8.484;2022-11-15T02:04:17;5.70;;;4.10;;
8958;SDS011;4514;49.476;8.484;2022-11-15T02:06:44;5.70;;;4.10;;
8958;SDS011;4514;49.476;8.484;2022-11-15T02:09:10;4.70;;;4.25;;
8958;SDS011;4514;49.476;8.484;2022-11-15T02:11:38;5.13;;;4.32;;
8958;SDS011;4514;49.476;8.484;2022-11-15T02:14:04;7.15;;;4.47;;
8958;SDS011;4514;49.476;8.484;2022-11-15T02:21:48;4.50;;;3.83;;
8958;SDS011;4514;49.476;8.484;2022-11-15T02:24:34;4.22;;;3.83;;
8958;SDS011;4514;49.476;8.484;2022-11-15T02:27:14;6.05;;;3.88;;
8958;SDS011;4514;49.476;8.484;2022-11-15T02:32:50;5.55;;;3.70;;
8958;SDS011;4514;49.476;8.484;2022-11-15T02:40:30;6.75;;;4.40;;
8958;SDS011;4514;49.476;8.484;2022-11-15T02:43:09;5.55;;;4.00;;
8958;SDS011;4514;49.476;8.484;2022-11-15T02:46:06;6.30;;;4.43;;
8958;SDS011;4514;49.476;8.484;2022-11-15T02:48:37;7.50;;;4.82;;
8958;SDS011;4514;49.476;8.484;2022-11-15T02:51:05;4.72;;;4.15;;
8958;SDS011;4514;49.476;8.484;2022-11-15T02:53:31;6.88;;;4.95;;
8958;SDS011;4514;49.476;8.484;2022-11-15T02:55:56;5.75;;;4.68;;
8958;SDS011;4514;49.476;8.484;2022-11-15T03:01:15;4.97;;;4.05;;
8958;SDS011;4514;49.476;8.484;2022-11-15T03:09:28;6.63;;;4.20;;
8958;SDS011;4514;49.476;8.484;2022-11-15T03:12:18;6.68;;;4.45;;
8958;SDS011;4514;49.476;8.484;2022-11-15T03:14:51;5.45;;;4.45;;
8958;SDS011;4514;49.476;8.484;2022-11-15T03:17:23;9.45;;;4.30;;
8958;SDS011;4514;49.476;8.484;2022-11-15T03:19:56;5.10;;;4.13;;
8958;SDS011;4514;49.476;8.484;2022-11-15T03:22:29;5.00;;;4.00;;
8958;SDS011;4514;49.476;8.484;2022-11-15T03:24:58;5.03;;;4.32;;
8958;SDS011;4514;49.476;8.484;2022-11-15T03:27:27;5.13;;;4.00;;
8958;SDS011;4514;49.476;8.484;2022-11-15T03:29:56;5.80;;;4.00;;
8958;SDS011;4514;49.476;8.484;2022-11-15T03:32:25;4.80;;;3.40;;
8958;SDS011;4514;49.476;8.484;2022-11-15T03:34:58;4.78;;;3.70;;
8958;SDS011;4514;49.476;8.484;2022-11-15T03:40:16;5.78;;;4.00;;
8958;SDS011;4514;49.476;8.484;2022-11-15T03:43:28;4.88;;;3.55;;
8958;SDS011;4514;49.476;8.484;2022-11-15T03:45:45;4.50;;;3.10;;
8958;SDS011;4514;49.476;8.484;2022-11-15T03:48:25;3.65;;;3.30;;
8958;SDS011;4514;49.476;8.484;2022-11-15T03:50:57;5.10;;;3.53;;
8958;SDS011;4514;49.476;8.484;2022-11-15T03:53:25;3.85;;;3.20;;
8958;SDS011;4514;49.476;8.484;2022-11-15T03:55:50;4.65;;;3.35;;
8958;SDS011;4514;49.476;8.484;2022-11-15T03:58:15;4.20;;;3.70;;
8958;SDS011;4514;49.476;8.484;2022-11-15T04:00:41;5.47;;;3.30;;
8958;SDS011;4514;49.476;8.484;2022-11-15T04:03:08;4.40;;;3.35;;
8958;SDS011;4514;49.476;8.484;2022-11-15T04:05:34;4.43;;;3.40;;
8958;SDS011;4514;49.476;8.484;2022-11-15T04:08:04;5.60;;;3.45;;
8958;SDS011;4514;49.476;8.484;2022-11-15T04:10:29;4.65;;;3.67;;
8958;SDS011;4514;49.476;8.484;2022-11-15T04:12:57;3.67;;;3.20;;
8958;SDS011;4514;49.476;8.484;2022-11-15T04:15:23;3.22;;;2.90;;
8958;SDS011;4514;49.476;8.484;2022-11-15T04:17:52;5.35;;;3.47;;
8958;SDS011;4514;49.476;8.484;2022-11-15T04:20:21;4.30;;;3.20;;
8958;SDS011;4514;49.476;8.484;2022-11-15T04:23:08;3.38;;;3.08;;
8958;SDS011;4514;49.476;8.484;2022-11-15T04:25:58;4.82;;;3.25;;
8958;SDS011;4514;49.476;8.484;2022-11-15T04:28:26;3.80;;;3.28;;
8958;SDS011;4514;49.476;8.484;2022-11-15T04:30:52;3.95;;;3.40;;
8958;SDS011;4514;49.476;8.484;2022-11-15T04:33:22;3.78;;;3.10;;
8958;SDS011;4514;49.476;8.484;2022-11-15T04:35:47;4.25;;;3.17;;
8958;SDS011;4514;49.476;8.484;2022-11-15T04:38:35;3.88;;;3.47;;
8958;SDS011;4514;49.476;8.484;2022-11-15T04:41:01;6.00;;;3.35;;
8958;SDS011;4514;49.476;8.484;2022-11-15T04:43:26;3.65;;;3.00;;
8958;SDS011;4514;49.476;8.484;2022-11-15T04:45:52;3.78;;;3.35;;
8958;SDS011;4514;49.476;8.484;2022-11-15T04:48:20;5.25;;;3.55;;
8958;SDS011;4514;49.476;8.484;2022-11-15T04:50:49;4.63;;;3.35;;
8958;SDS011;4514;49.476;8.484;2022-11-15T04:53:17;3.97;;;3.00;;
8958;SDS011;4514;49.476;8.484;2022-11-15T04:55:45;5.05;;;3.17;;
8958;SDS011;4514;49.476;8.484;2022-11-15T04:58:13;3.50;;;3.20;;
8958;SDS011;4514;49.476;8.484;2022-11-15T05:00:39;5.45;;;3.05;;
8958;SDS011;4514;49.476;8.484;2022-11-15T05:03:07;5.65;;;3.40;;
8958;SDS011;4514;49.476;8.484;2022-11-15T05:05:54;3.90;;;3.20;;
8958;SDS011;4514;49.476;8.484;2022-11-15T05:08:22;4.50;;;3.20;;
8958;SDS011;4514;49.476;8.484;2022-11-15T05:10:48;4.07;;;3.25;;
8958;SDS011;4514;49.476;8.484;2022-11-15T05:13:16;4.07;;;3.40;;
8958;SDS011;4514;49.476;8.484;2022-11-15T05:15:46;4.53;;;3.47;;
8958;SDS011;4514;49.476;8.484;2022-11-15T05:18:14;4.53;;;3.45;;
8958;SDS011;4514;49.476;8.484;2022-11-15T05:20:41;4.00;;;3.25;;
8958;SDS011;4514;49.476;8.484;2022-11-15T05:23:09;4.07;;;3.15;;
8958;SDS011;4514;49.476;8.484;2022-11-15T05:25:35;4.95;;;3.08;;
8958;SDS011;4514;49.476;8.484;2022-11-15T05:28:03;5.05;;;3.55;;
8958;SDS011;4514;49.476;8.484;2022-11-15T05:30:31;3.70;;;3.17;;
8958;SDS011;4514;49.476;8.484;2022-11-15T05:33:01;6.18;;;3.95;;
8958;SDS011;4514;49.476;8.484;2022-11-15T05:35:30;4.78;;;3.67;;
8958;SDS011;4514;49.476;8.484;2022-11-15T05:37:59;5.68;;;3.58;;
8958;SDS011;4514;49.476;8.484;2022-11-15T05:40:27;4.68;;;3.65;;
8958;SDS011;4514;49.476;8.484;2022-11-15T05:42:54;5.10;;;3.50;;
8958;SDS011;4514;49.476;8.484;2022-11-15T05:45:19;4.22;;;3.50;;
8958;SDS011;4514;49.476;8.484;2022-11-15T05:47:45;4.67;;;3.70;;
8958;SDS011;4514;49.476;8.484;2022-11-15T05:50:12;4.32;;;3.92;;
8958;SDS011;4514;49.476;8.484;2022-11-15T05:52:39;8.00;;;3.83;;
8958;SDS011;4514;49.476;8.484;2022-11-15T05:55:09;5.07;;;3.50;;
8958;SDS011;4514;49.476;8.484;2022-11-15T05:57:35;6.72;;;5.55;;
8958;SDS011;4514;49.476;8.484;2022-11-15T06:00:01;5.13;;;4.53;;
8958;SDS011;4514;49.476;8.484;2022-11-15T06:02:29;4.55;;;3.58;;
8958;SDS011;4514;49.476;8.484;2022-11-15T06:04:56;5.03;;;3.80;;
8958;SDS011;4514;49.476;8.484;2022-11-15T06:07:22;5.13;;;3.95;;
8958;SDS011;4514;49.476;8.484;2022-11-15T06:09:47;4.53;;;3.63;;
8958;SDS011;4514;49.476;8.484;2022-11-15T06:12:13;5.13;;;4.27;;
8958;SDS011;4514;49.476;8.484;2022-11-15T06:14:38;7.35;;;3.67;;
8958;SDS011;4514;49.476;8.484;2022-11-15T06:17:03;4.68;;;3.60;;
8958;SDS011;4514;49.476;8.484;2022-11-15T06:19:29;4.68;;;3.70;;
8958;SDS011;4514;49.476;8.484;2022-11-15T06:21:58;4.30;;;3.90;;
8958;SDS011;4514;49.476;8.484;2022-11-15T06:24:26;6.47;;;3.33;;
8958;SDS011;4514;49.476;8.484;2022-11-15T06:26:52;4.43;;;3.58;;
8958;SDS011;4514;49.476;8.484;2022-11-15T06:29:17;7.35;;;3.50;;
8958;SDS011;4514;49.476;8.484;2022-11-15T06:31:45;4.95;;;3.50;;
8958;SDS011;4514;49.476;8.484;2022-11-15T06:34:10;4.70;;;3.80;;
8958;SDS011;4514;49.476;8.484;2022-11-15T06:36:36;4.30;;;3.55;;
8958;SDS011;4514;49.476;8.484;2022-11-15T06:39:02;6.18;;;3.60;;
8958;SDS011;4514;49.476;8.484;2022-11-15T06:41:33;5.07;;;3.97;;
8958;SDS011;4514;49.476;8.484;2022-11-15T06:43:59;4.45;;;3.40;;
8958;SDS011;4514;49.476;8.484;2022-11-15T06:46:26;5.30;;;3.50;;
8958;SDS011;4514;49.476;8.484;2022-11-15T06:48:54;5.10;;;4.07;;
8958;SDS011;4514;49.476;8.484;2022-11-15T06:51:20;4.85;;;3.97;;
8958;SDS011;4514;49.476;8.484;2022-11-15T06:53:45;4.18;;;3.47;;
8958;SDS011;4514;49.476;8.484;2022-11-15T06:56:11;5.68;;;3.72;;
8958;SDS011;4514;49.476;8.484;2022-11-15T06:58:41;4.22;;;3.83;;
8958;SDS011;4514;49.476;8.484;2022-11-15T07:01:07;4.60;;;3.47;;
8958;SDS011;4514;49.476;8.484;2022-11-15T07:03:34;5.97;;;3.50;;
8958;SDS011;4514;49.476;8.484;2022-11-15T07:06:01;6.45;;;3.88;;
8958;SDS011;4514;49.476;8.484;2022-11-15T07:08:28;5.22;;;3.58;;
8958;SDS011;4514;49.476;8.484;2022-11-15T07:10:55;5.53;;;3.25;;
8958;SDS011;4514;49.476;8.484;2022-11-15T07:13:24;5.25;;;3.30;;
8958;SDS011;4514;49.476;8.484;2022-11-15T07:15:50;7.97;;;4.13;;
8958;SDS011;4514;49.476;8.484;2022-11-15T07:18:16;9.13;;;4.45;;
8958;SDS011;4514;49.476;8.484;2022-11-15T07:20:41;8.70;;;4.43;;
8958;SDS011;4514;49.476;8.484;2022-11-15T07:23:06;8.10;;;5.10;;
8958;SDS011;4514;49.476;8.484;2022-11-15T07:25:32;8.23;;;4.43;;
8958;SDS011;4514;49.476;8.484;2022-11-15T07:27:58;10.68;;;5.00;;
8958;SDS011;4514;49.476;8.484;2022-11-15T07:30:24;10.05;;;4.55;;
8958;SDS011;4514;49.476;8.484;2022-11-15T07:32:54;8.07;;;5.00;;
8958;SDS011;4514;49.476;8.484;2022-11-15T07:35:20;10.73;;;5.18;;
8958;SDS011;4514;49.476;8.484;2022-11-15T07:38:02;7.35;;;4.88;;
8958;SDS011;4514;49.476;8.484;2022-11-15T07:40:28;8.43;;;5.35;;
8958;SDS011;4514;49.476;8.484;2022-11-15T07:43:01;8.57;;;5.35;;
8958;SDS011;4514;49.476;8.484;2022-11-15T07:45:30;15.43;;;6.47;;
8958;SDS011;4514;49.476;8.484;2022-11-15T07:47:58;8.20;;;5.57;;
8958;SDS011;4514;49.476;8.484;2022-11-15T07:50:24;7.95;;;4.90;;
8958;SDS011;4514;49.476;8.484;2022-11-15T07:52:56;8.07;;;4.65;;
8958;SDS011;4514;49.476;8.484;2022-11-15T07:55:25;7.60;;;4.50;;
8958;SDS011;4514;49.476;8.484;2022-11-15T07:57:59;6.75;;;4.32;;
8958;SDS011;4514;49.476;8.484;2022-11-15T08:00:25;7.75;;;3.75;;
8958;SDS011;4514;49.476;8.484;2022-11-15T08:02:53;7.53;;;4.10;;
8958;SDS011;4514;49.476;8.484;2022-11-15T08:05:26;5.00;;;4.07;;
8958;SDS011;4514;49.476;8.484;2022-11-15T08:07:57;5.60;;;4.00;;
8958;SDS011;4514;49.476;8.484;2022-11-15T08:10:26;6.20;;;3.93;;
8958;SDS011;4514;49.476;8.484;2022-11-15T08:13:02;5.65;;;3.80;;
8958;SDS011;4514;49.476;8.484;2022-11-15T08:15:29;5.95;;;4.03;;
8958;SDS011;4514;49.476;8.484;2022-11-15T08:17:57;5.32;;;3.65;;
8958;SDS011;4514;49.476;8.484;2022-11-15T08:20:26;4.65;;;3.88;;
8958;SDS011;4514;49.476;8.484;2022-11-15T08:22:54;5.28;;;4.07;;
8958;SDS011;4514;49.476;8.484;2022-11-15T08:25:23;4.85;;;3.95;;
8958;SDS011;4514;49.476;8.484;2022-11-15T08:27:53;5.80;;;4.18;;
8958;SDS011;4514;49.476;8.484;2022-11-15T08:30:20;7.82;;;4.18;;
8958;SDS011;4514;49.476;8.484;2022-11-15T08:32:48;7.43;;;4.13;;
8958;SDS011;4514;49.476;8.484;2022-11-15T08:35:17;6.07;;;3.80;;
8958;SDS011;4514;49.476;8.484;2022-11-15T08:37:46;6.32;;;4.15;;
8958;SDS011;4514;49.476;8.484;2022-11-15T08:40:12;4.75;;;3.97;;
8958;SDS011;4514;49.476;8.484;2022-11-15T08:42:38;5.80;;;3.80;;
8958;SDS011;4514;49.476;8.484;2022-11-15T08:45:04;4.63;;;3.80;;
8958;SDS011;4514;49.476;8.484;2022-11-15T08:47:30;4.38;;;3.65;;
8958;SDS011;4514;49.476;8.484;2022-11-15T08:49:58;5.15;;;4.18;;
8958;SDS011;4514;49.476;8.484;2022-11-15T08:52:23;5.93;;;4.07;;
8958;SDS011;4514;49.476;8.484;2022-11-15T08:54:51;5.95;;;4.40;;
8958;SDS011;4514;49.476;8.484;2022-11-15T08:57:16;5.80;;;4.25;;
8958;SDS011;4514;49.476;8.484;2022-11-15T08:59:42;6.90;;;4.57;;
8958;SDS011;4514;49.476;8.484;2022-11-15T09:02:10;9.75;;;4.68;;
8958;SDS011;4514;49.476;8.484;2022-11-15T09:04:37;5.70;;;4.55;;
8958;SDS011;4514;49.476;8.484;2022-11-15T09:07:04;6.90;;;4.30;;
8958;SDS011;4514;49.476;8.484;2022-11-15T09:09:32;6.30;;;4.43;;
8958;SDS011;4514;49.476;8.484;2022-11-15T09:11:57;5.35;;;4.68;;
8958;SDS011;4514;49.476;8.484;2022-11-15T09:14:23;6.45;;;4.13;;
8958;SDS011;4514;49.476;8.484;2022-11-15T09:16:48;6.13;;;4.63;;
8958;SDS011;4514;49.476;8.484;2022-11-15T09:19:13;6.22;;;4.35;;
8958;SDS011;4514;49.476;8.484;2022-11-15T09:21:42;5.32;;;4.00;;
8958;SDS011;4514;49.476;8.484;2022-11-15T09:24:07;8.15;;;4.35;;
8958;SDS011;4514;49.476;8.484;2022-11-15T09:26:33;4.82;;;3.80;;
8958;SDS011;4514;49.476;8.484;2022-11-15T09:29:01;5.30;;;3.97;;
8958;SDS011;4514;49.476;8.484;2022-11-15T09:31:27;4.93;;;3.93;;
8958;SDS011;4514;49.476;8.484;2022-11-15T09:33:54;5.97;;;3.55;;
8958;SDS011;4514;49.476;8.484;2022-11-15T09:36:19;5.40;;;3.90;;
8958;SDS011;4514;49.476;8.484;2022-11-15T09:38:47;4.88;;;3.78;;
8958;SDS011;4514;49.476;8.484;2022-11-15T09:43:47;4.20;;;3.80;;
8958;SDS011;4514;49.476;8.484;2022-11-15T09:49:15;4.18;;;3.63;;
8958;SDS011;4514;49.476;8.484;2022-11-15T09:51:44;4.30;;;3.80;;
8958;SDS011;4514;49.476;8.484;2022-11-15T09:56:51;6.55;;;4.22;;
8958;SDS011;4514;49.476;8.484;2022-11-15T09:59:27;4.43;;;3.90;;
8958;SDS011;4514;49.476;8.484;2022-11-15T10:04:32;5.40;;;3.92;;
8958;SDS011;4514;49.476;8.484;2022-11-15T10:07:04;4.80;;;4.00;;
8958;SDS011;4514;49.476;8.484;2022-11-15T10:09:43;5.82;;;4.10;;
8958;SDS011;4514;49.476;8.484;2022-11-15T10:12:17;5.55;;;4.20;;
8958;SDS011;4514;49.476;8.484;2022-11-15T10:14:46;4.68;;;3.58;;
8958;SDS011;4514;49.476;8.484;2022-11-15T10:25:27;5.03;;;4.05;;
8958;SDS011;4514;49.476;8.484;2022-11-15T10:30:45;6.47;;;3.65;;
8958;SDS011;4514;49.476;8.484;2022-11-15T10:41:14;4.03;;;3.63;;
8958;SDS011;4514;49.476;8.484;2022-11-15T10:43:43;5.75;;;3.67;;
8958;SDS011;4514;49.476;8.484;2022-11-15T10:46:22;7.28;;;3.83;;
8958;SDS011;4514;49.476;8.484;2022-11-15T10:48:50;5.90;;;4.00;;
8958;SDS011;4514;49.476;8.484;2022-11-15T10:51:22;5.65;;;4.13;;
8958;SDS011;4514;49.476;8.484;2022-11-15T10:53:53;5.35;;;3.90;;
8958;SDS011;4514;49.476;8.484;2022-11-15T10:56:22;4.05;;;3.60;;
8958;SDS011;4514;49.476;8.484;2022-11-15T10:58:54;5.55;;;3.95;;
8958;SDS011;4514;49.476;8.484;2022-11-15T11:01:25;6.07;;;3.45;;
8958;SDS011;4514;49.476;8.484;2022-11-15T11:04:05;4.25;;;3.67;;
8958;SDS011;4514;49.476;8.484;2022-11-15T11:09:27;3.95;;;3.40;;
8958;SDS011;4514;49.476;8.484;2022-11-15T11:12:00;4.60;;;3.45;;
8958;SDS011;4514;49.476;8.484;2022-11-15T11:14:26;5.32;;;3.80;;
8958;SDS011;4514;49.476;8.484;2022-11-15T11:22:13;5.10;;;3.70;;
8958;SDS011;4514;49.476;8.484;2022-11-15T11:30:23;4.57;;;3.13;;
8958;SDS011;4514;49.476;8.484;2022-11-15T11:33:19;4.28;;;2.90;;
8958;SDS011;4514;49.476;8.484;2022-11-15T11:43:48;3.60;;;2.90;;
8958;SDS011;4514;49.476;8.484;2022-11-15T11:49:04;3.65;;;3.05;;
8958;SDS011;4514;49.476;8.484;2022-11-15T11:51:36;5.93;;;3.00;;
8958;SDS011;4514;49.476;8.484;2022-11-15T11:54:25;3.85;;;2.55;;
8958;SDS011;4514;49.476;8.484;2022-11-15T11:56:58;4.43;;;2.50;;
8958;SDS011;4514;49.476;8.484;2022-11-15T12:02:01;4.70;;;2.60;;
8958;SDS011;4514;49.476;8.484;2022-11-15T12:04:36;3.35;;;2.80;;
8958;SDS011;4514;49.476;8.484;2022-11-15T12:12:35;2.85;;;2.33;;
8958;SDS011;4514;49.476;8.484;2022-11-15T12:15:03;2.20;;;2.00;;
8958;SDS011;4514;49.476;8.484;2022-11-15T12:17:35;4.07;;;2.15;;
8958;SDS011;4514;49.476;8.484;2022-11-15T12:20:03;3.97;;;2.30;;
8958;SDS011;4514;49.476;8.484;2022-11-15T12:25:14;3.33;;;1.95;;
8958;SDS011;4514;49.476;8.484;2022-11-15T12:27:42;2.33;;;1.92;;
8958;SDS011;4514;49.476;8.484;2022-11-15T12:30:13;4.47;;;2.15;;
8958;SDS011;4514;49.476;8.484;2022-11-15T12:32:52;1.88;;;1.77;;
8958;SDS011;4514;49.476;8.484;2022-11-15T12:35:34;2.35;;;2.15;;
8958;SDS011;4514;49.476;8.484;2022-11-15T12:38:02;3.25;;;2.47;;
8958;SDS011;4514;49.476;8.484;2022-11-15T12:40:32;2.38;;;2.17;;
8958;SDS011;4514;49.476;8.484;2022-11-15T12:45:44;2.60;;;1.90;;
8958;SDS011;4514;49.476;8.484;2022-11-15T13:02:15;4.13;;;2.15;;
8958;SDS011;4514;49.476;8.484;2022-11-15T13:11:57;2.58;;;1.85;;
8958;SDS011;4514;49.476;8.484;2022-11-15T13:17:21;4.07;;;2.35;;
8958;SDS011;4514;49.476;8.484;2022-11-15T13:19:52;3.08;;;2.28;;
8958;SDS011;4514;49.476;8.484;2022-11-15T13:22:42;3.58;;;2.20;;
8958;SDS011;4514;49.476;8.484;2022-11-15T13:28:44;2.63;;;2.30;;
8958;SDS011;4514;49.476;8.484;2022-11-15T13:33:50;3.00;;;2.30;;
8958;SDS011;4514;49.476;8.484;2022-11-15T13:36:24;4.55;;;2.30;;
8958;SDS011;4514;49.476;8.484;2022-11-15T13:39:03;2.55;;;2.20;;
8958;SDS011;4514;49.476;8.484;2022-11-15T13:41:45;3.47;;;2.33;;
8958;SDS011;4514;49.476;8.484;2022-11-15T13:44:19;3.25;;;2.60;;
8958;SDS011;4514;49.476;8.484;2022-11-15T13:47:05;3.25;;;2.45;;
8958;SDS011;4514;49.476;8.484;2022-11-15T13:49:40;2.50;;;2.30;;
8958;SDS011;4514;49.476;8.484;2022-11-15T13:52:10;2.47;;;2.28;;
8958;SDS011;4514;49.476;8.484;2022-11-15T13:54:43;3.67;;;2.60;;
8958;SDS011;4514;49.476;8.484;2022-11-15T13:57:23;4.20;;;2.50;;
8958;SDS011;4514;49.476;8.484;2022-11-15T13:59:54;3.00;;;2.42;;
8958;SDS011;4514;49.476;8.484;2022-11-15T14:02:25;5.20;;;2.67;;
8958;SDS011;4514;49.476;8.484;2022-11-15T14:07:23;6.57;;;2.45;;
8958;SDS011;4514;49.476;8.484;2022-11-15T14:09:50;4.20;;;2.90;;
8958;SDS011;4514;49.476;8.484;2022-11-15T14:12:35;4.75;;;2.75;;
8958;SDS011;4514;49.476;8.484;2022-11-15T14:15:24;4.38;;;2.72;;
8958;SDS011;4514;49.476;8.484;2022-11-15T14:17:57;3.63;;;2.85;;
8958;SDS011;4514;49.476;8.484;2022-11-15T14:22:51;5.90;;;2.70;;
8958;SDS011;4514;49.476;8.484;2022-11-15T14:25:24;4.72;;;3.03;;
8958;SDS011;4514;49.476;8.484;2022-11-15T14:28:11;4.88;;;3.08;;
8958;SDS011;4514;49.476;8.484;2022-11-15T14:30:37;3.75;;;2.50;;
8958;SDS011;4514;49.476;8.484;2022-11-15T14:33:15;3.85;;;2.65;;
8958;SDS011;4514;49.476;8.484;2022-11-15T14:35:46;2.70;;;2.17;;
8958;SDS011;4514;49.476;8.484;2022-11-15T14:38:14;2.55;;;2.35;;
8958;SDS011;4514;49.476;8.484;2022-11-15T14:40:39;5.38;;;2.75;;
8958;SDS011;4514;49.476;8.484;2022-11-15T14:43:08;4.50;;;2.72;;
8958;SDS011;4514;49.476;8.484;2022-11-15T14:45:37;3.50;;;3.20;;
8958;SDS011;4514;49.476;8.484;2022-11-15T14:48:03;6.00;;;3.15;;
8958;SDS011;4514;49.476;8.484;2022-11-15T14:50:31;5.85;;;2.80;;
8958;SDS011;4514;49.476;8.484;2022-11-15T14:52:57;6.88;;;3.55;;
8958;SDS011;4514;49.476;8.484;2022-11-15T14:55:26;5.57;;;3.53;;
8958;SDS011;4514;49.476;8.484;2022-11-15T14:57:53;7.47;;;3.88;;
8958;SDS011;4514;49.476;8.484;2022-11-15T15:00:19;5.13;;;3.90;;
8958;SDS011;4514;49.476;8.484;2022-11-15T15:02:46;5.53;;;3.50;;
8958;SDS011;4514;49.476;8.484;2022-11-15T15:05:19;6.20;;;3.53;;
8958;SDS011;4514;49.476;8.484;2022-11-15T15:07:48;7.15;;;3.60;;
8958;SDS011;4514;49.476;8.484;2022-11-15T15:10:17;4.05;;;3.40;;
8958;SDS011;4514;49.476;8.484;2022-11-15T15:12:43;5.70;;;3.35;;
8958;SDS011;4514;49.476;8.484;2022-11-15T15:15:12;4.38;;;3.45;;
8958;SDS011;4514;49.476;8.484;2022-11-15T15:17:40;7.53;;;3.10;;
8958;SDS011;4514;49.476;8.484;2022-11-15T15:20:06;4.35;;;3.15;;
8958;SDS011;4514;49.476;8.484;2022-11-15T15:22:32;4.55;;;3.33;;
8958;SDS011;4514;49.476;8.484;2022-11-15T15:24:57;6.70;;;4.15;;
8958;SDS011;4514;49.476;8.484;2022-11-15T15:27:23;3.90;;;3.50;;
8958;SDS011;4514;49.476;8.484;2022-11-15T15:29:50;5.43;;;3.42;;
8958;SDS011;4514;49.476;8.484;2022-11-15T15:32:20;5.72;;;4.30;;
8958;SDS011;4514;49.476;8.484;2022-11-15T15:34:46;6.70;;;3.65;;
8958;SDS011;4514;49.476;8.484;2022-11-15T15:39:53;4.90;;;3.80;;
8958;SDS011;4514;49.476;8.484;2022-11-15T15:42:20;5.38;;;3.72;;
8958;SDS011;4514;49.476;8.484;2022-11-15T15:44:46;4.60;;;3.65;;
8958;SDS011;4514;49.476;8.484;2022-11-15T15:47:21;5.07;;;4.07;;
8958;SDS011;4514;49.476;8.484;2022-11-15T15:49:50;5.78;;;4.22;;
8958;SDS011;4514;49.476;8.484;2022-11-15T15:52:16;6.90;;;5.18;;
8958;SDS011;4514;49.476;8.484;2022-11-15T15:54:44;7.45;;;4.65;;
8958;SDS011;4514;49.476;8.484;2022-11-15T15:57:12;7.72;;;4.72;;
8958;SDS011;4514;49.476;8.484;2022-11-15T15:59:38;8.07;;;5.13;;
8958;SDS011;4514;49.476;8.484;2022-11-15T16:02:04;5.30;;;4.55;;
8958;SDS011;4514;49.476;8.484;2022-11-15T16:04:29;4.90;;;4.38;;
8958;SDS011;4514;49.476;8.484;2022-11-15T16:07:00;8.43;;;4.60;;
8958;SDS011;4514;49.476;8.484;2022-11-15T16:09:30;6.22;;;4.15;;
8958;SDS011;4514;49.476;8.484;2022-11-15T16:12:14;7.57;;;4.40;;
8958;SDS011;4514;49.476;8.484;2022-11-15T16:14:41;5.65;;;4.20;;
8958;SDS011;4514;49.476;8.484;2022-11-15T16:17:09;6.60;;;3.97;;
8958;SDS011;4514;49.476;8.484;2022-11-15T16:19:39;7.55;;;3.97;;
8958;SDS011;4514;49.476;8.484;2022-11-15T16:22:07;5.47;;;3.72;;
8958;SDS011;4514;49.476;8.484;2022-11-15T16:24:32;4.80;;;4.28;;
8958;SDS011;4514;49.476;8.484;2022-11-15T16:26:57;7.13;;;4.13;;
8958;SDS011;4514;49.476;8.484;2022-11-15T16:29:23;6.60;;;3.60;;
8958;SDS011;4514;49.476;8.484;2022-11-15T16:31:51;4.43;;;3.60;;
8958;SDS011;4514;49.476;8.484;2022-11-15T16:34:16;6.82;;;3.90;;
8958;SDS011;4514;49.476;8.484;2022-11-15T16:36:42;5.88;;;4.07;;
8958;SDS011;4514;49.476;8.484;2022-11-15T16:39:10;5.37;;;3.50;;
8958;SDS011;4514;49.476;8.484;2022-11-15T16:41:38;4.95;;;3.50;;
8958;SDS011;4514;49.476;8.484;2022-11-15T16:44:03;5.18;;;3.20;;
8958;SDS011;4514;49.476;8.484;2022-11-15T16:46:29;4.35;;;3.47;;
8958;SDS011;4514;49.476;8.484;2022-11-15T16:48:56;4.70;;;3.58;;
8958;SDS011;4514;49.476;8.484;2022-11-15T16:51:22;6.30;;;3.78;;
8958;SDS011;4514;49.476;8.484;2022-11-15T16:53:50;4.75;;;3.90;;
8958;SDS011;4514;49.476;8.484;2022-11-15T16:58:44;4.93;;;3.30;;
8958;SDS011;4514;49.476;8.484;2022-11-15T17:01:14;5.05;;;3.60;;
8958;SDS011;4514;49.476;8.484;2022-11-15T17:03:41;5.68;;;3.42;;
8958;SDS011;4514;49.476;8.484;2022-11-15T17:06:07;7.40;;;5.78;;
8958;SDS011;4514;49.476;8.484;2022-11-15T17:08:34;6.22;;;4.07;;
8958;SDS011;4514;49.476;8.484;2022-11-15T17:11:05;3.97;;;3.58;;
8958;SDS011;4514;49.476;8.484;2022-11-15T17:13:33;3.83;;;3.40;;
8958;SDS011;4514;49.476;8.484;2022-11-15T17:16:05;6.75;;;3.70;;
8958;SDS011;4514;49.476;8.484;2022-11-15T17:18:36;5.45;;;3.45;;
8958;SDS011;4514;49.476;8.484;2022-11-15T17:21:09;10.00;;;6.70;;
8958;SDS011;4514;49.476;8.484;2022-11-15T17:23:40;6.15;;;5.53;;
8958;SDS011;4514;49.476;8.484;2022-11-15T17:26:06;9.13;;;7.47;;
8958;SDS011;4514;49.476;8.484;2022-11-15T17:28:34;5.68;;;3.83;;
8958;SDS011;4514;49.476;8.484;2022-11-15T17:30:59;5.70;;;3.55;;
8958;SDS011;4514;49.476;8.484;2022-11-15T17:33:25;4.85;;;3.70;;
8958;SDS011;4514;49.476;8.484;2022-11-15T17:35:57;5.65;;;3.60;;
8958;SDS011;4514;49.476;8.484;2022-11-15T17:38:24;5.55;;;3.47;;
8958;SDS011;4514;49.476;8.484;2022-11-15T17:41:06;5.10;;;3.70;;